sensor_id;sensor_type;location;lat;lon;timestamp;P1;durP1;ratioP1;P2;durP2;ratioP2
71606;SDS011;60641;53.556;9.914;2022-09-09T00:00:53;17.60;;;11.80;;
71606;SDS011;60641;53.556;9.914;2022-09-09T00:03:40;17.90;;;12.30;;
71606;SDS011;60641;53.556;9.914;2022-09-09T00:09:00;18.60;;;11.90;;
71606;SDS011;60641;53.556;9.914;2022-09-09T00:11:32;19.00;;;13.40;;
71606;SDS011;60641;53.556;9.914;2022-09-09T00:14:53;19.50;;;12.90;;
71606;SDS011;60641;53.556;9.914;2022-09-09T00:17:01;18.90;;;13.40;;
71606;SDS011;60641;53.556;9.914;2022-09-09T00:19:54;19.50;;;13.40;;
71606;SDS011;60641;53.556;9.914;2022-09-09T00:22:27;19.40;;;13.30;;
71606;SDS011;60641;53.556;9.914;2022-09-09T00:27:40;21.10;;;13.60;;
71606;SDS011;60641;53.556;9.914;2022-09-09T00:32:45;17.90;;;11.50;;
71606;SDS011;60641;53.556;9.914;2022-09-09T00:37:45;16.70;;;11.90;;
71606;SDS011;60641;53.556;9.914;2022-09-09T00:40:35;15.90;;;10.50;;
71606;SDS011;60641;53.556;9.914;2022-09-09T00:49:08;18.80;;;11.50;;
71606;SDS011;60641;53.556;9.914;2022-09-09T01:02:34;17.90;;;12.50;;
71606;SDS011;60641;53.556;9.914;2022-09-09T01:05:13;22.80;;;13.20;;
71606;SDS011;60641;53.556;9.914;2022-09-09T01:07:45;20.00;;;13.30;;
71606;SDS011;60641;53.556;9.914;2022-09-09T01:10:49;20.70;;;13.60;;
71606;SDS011;60641;53.556;9.914;2022-09-09T01:13:15;20.00;;;13.30;;
71606;SDS011;60641;53.556;9.914;2022-09-09T01:15:46;20.10;;;12.80;;
71606;SDS011;60641;53.556;9.914;2022-09-09T01:18:14;21.90;;;13.50;;
71606;SDS011;60641;53.556;9.914;2022-09-09T01:26:23;19.90;;;12.30;;
71606;SDS011;60641;53.556;9.914;2022-09-09T01:28:53;18.20;;;11.80;;
71606;SDS011;60641;53.556;9.914;2022-09-09T01:31:21;20.10;;;12.50;;
71606;SDS011;60641;53.556;9.914;2022-09-09T01:33:51;18.00;;;12.10;;
71606;SDS011;60641;53.556;9.914;2022-09-09T01:36:40;18.40;;;11.90;;
71606;SDS011;60641;53.556;9.914;2022-09-09T01:39:12;20.00;;;13.10;;
71606;SDS011;60641;53.556;9.914;2022-09-09T01:41:39;21.30;;;13.40;;
71606;SDS011;60641;53.556;9.914;2022-09-09T01:44:06;20.00;;;13.10;;
71606;SDS011;60641;53.556;9.914;2022-09-09T01:46:33;19.90;;;13.40;;
71606;SDS011;60641;53.556;9.914;2022-09-09T01:49:00;21.30;;;13.50;;
71606;SDS011;60641;53.556;9.914;2022-09-09T01:51:27;21.10;;;13.60;;
71606;SDS011;60641;53.556;9.914;2022-09-09T01:53:53;19.90;;;13.30;;
71606;SDS011;60641;53.556;9.914;2022-09-09T02:04:35;22.30;;;14.20;;
71606;SDS011;60641;53.556;9.914;2022-09-09T02:07:02;22.60;;;14.20;;
71606;SDS011;60641;53.556;9.914;2022-09-09T02:09:35;23.00;;;14.50;;
71606;SDS011;60641;53.556;9.914;2022-09-09T02:12:05;21.50;;;14.00;;
71606;SDS011;60641;53.556;9.914;2022-09-09T02:14:39;22.40;;;14.40;;
71606;SDS011;60641;53.556;9.914;2022-09-09T02:17:09;24.40;;;14.30;;
71606;SDS011;60641;53.556;9.914;2022-09-09T02:19:39;21.80;;;13.40;;
71606;SDS011;60641;53.556;9.914;2022-09-09T02:22:12;21.20;;;13.00;;
71606;SDS011;60641;53.556;9.914;2022-09-09T02:24:39;21.40;;;13.20;;
71606;SDS011;60641;53.556;9.914;2022-09-09T02:27:06;19.30;;;12.80;;
71606;SDS011;60641;53.556;9.914;2022-09-09T02:29:36;20.30;;;12.90;;
71606;SDS011;60641;53.556;9.914;2022-09-09T02:32:09;18.50;;;12.10;;
71606;SDS011;60641;53.556;9.914;2022-09-09T02:34:45;19.60;;;12.10;;
71606;SDS011;60641;53.556;9.914;2022-09-09T02:37:15;19.90;;;12.60;;
71606;SDS011;60641;53.556;9.914;2022-09-09T02:39:44;19.60;;;12.50;;
71606;SDS011;60641;53.556;9.914;2022-09-09T02:42:10;23.10;;;13.40;;
71606;SDS011;60641;53.556;9.914;2022-09-09T02:44:36;19.50;;;13.10;;
71606;SDS011;60641;53.556;9.914;2022-09-09T02:50:02;23.20;;;13.60;;
71606;SDS011;60641;53.556;9.914;2022-09-09T02:58:23;20.60;;;12.80;;
71606;SDS011;60641;53.556;9.914;2022-09-09T03:00:50;18.90;;;11.00;;
71606;SDS011;60641;53.556;9.914;2022-09-09T03:03:17;19.10;;;11.40;;
71606;SDS011;60641;53.556;9.914;2022-09-09T03:05:46;18.10;;;11.30;;
71606;SDS011;60641;53.556;9.914;2022-09-09T03:08:12;18.40;;;11.20;;
71606;SDS011;60641;53.556;9.914;2022-09-09T03:10:39;16.20;;;10.60;;
71606;SDS011;60641;53.556;9.914;2022-09-09T03:13:05;17.90;;;10.40;;
71606;SDS011;60641;53.556;9.914;2022-09-09T03:15:32;16.70;;;10.30;;
71606;SDS011;60641;53.556;9.914;2022-09-09T03:17:59;17.40;;;9.80;;
71606;SDS011;60641;53.556;9.914;2022-09-09T03:20:26;16.50;;;9.90;;
71606;SDS011;60641;53.556;9.914;2022-09-09T03:22:53;15.00;;;9.60;;
71606;SDS011;60641;53.556;9.914;2022-09-09T03:25:20;15.20;;;9.00;;
71606;SDS011;60641;53.556;9.914;2022-09-09T03:27:46;15.50;;;9.70;;
71606;SDS011;60641;53.556;9.914;2022-09-09T03:30:13;13.60;;;8.70;;
71606;SDS011;60641;53.556;9.914;2022-09-09T03:32:39;13.80;;;9.10;;
71606;SDS011;60641;53.556;9.914;2022-09-09T03:35:06;15.10;;;9.10;;
71606;SDS011;60641;53.556;9.914;2022-09-09T03:37:33;15.40;;;9.10;;
71606;SDS011;60641;53.556;9.914;2022-09-09T03:39:59;17.90;;;9.30;;
71606;SDS011;60641;53.556;9.914;2022-09-09T03:42:26;14.30;;;8.70;;
71606;SDS011;60641;53.556;9.914;2022-09-09T03:44:53;13.70;;;8.80;;
71606;SDS011;60641;53.556;9.914;2022-09-09T03:47:20;14.50;;;8.40;;
71606;SDS011;60641;53.556;9.914;2022-09-09T03:49:50;14.30;;;8.80;;
71606;SDS011;60641;53.556;9.914;2022-09-09T03:52:16;13.80;;;8.60;;
71606;SDS011;60641;53.556;9.914;2022-09-09T03:54:44;14.70;;;8.60;;
71606;SDS011;60641;53.556;9.914;2022-09-09T03:57:11;15.10;;;8.50;;
71606;SDS011;60641;53.556;9.914;2022-09-09T03:59:38;14.10;;;8.10;;
71606;SDS011;60641;53.556;9.914;2022-09-09T04:02:04;13.00;;;8.00;;
71606;SDS011;60641;53.556;9.914;2022-09-09T04:04:31;15.90;;;8.80;;
71606;SDS011;60641;53.556;9.914;2022-09-09T04:06:58;14.40;;;8.40;;
71606;SDS011;60641;53.556;9.914;2022-09-09T04:09:24;15.10;;;8.00;;
71606;SDS011;60641;53.556;9.914;2022-09-09T04:11:51;13.70;;;8.40;;
71606;SDS011;60641;53.556;9.914;2022-09-09T04:14:19;14.80;;;8.60;;
71606;SDS011;60641;53.556;9.914;2022-09-09T04:16:45;15.80;;;8.10;;
71606;SDS011;60641;53.556;9.914;2022-09-09T04:19:12;14.10;;;8.00;;
71606;SDS011;60641;53.556;9.914;2022-09-09T04:21:40;13.90;;;8.20;;
71606;SDS011;60641;53.556;9.914;2022-09-09T04:24:07;14.80;;;8.30;;
71606;SDS011;60641;53.556;9.914;2022-09-09T04:26:35;13.90;;;8.60;;
71606;SDS011;60641;53.556;9.914;2022-09-09T04:29:03;13.00;;;8.20;;
71606;SDS011;60641;53.556;9.914;2022-09-09T04:31:30;13.60;;;8.40;;
71606;SDS011;60641;53.556;9.914;2022-09-09T04:33:56;14.20;;;8.80;;
71606;SDS011;60641;53.556;9.914;2022-09-09T04:36:23;15.10;;;9.10;;
71606;SDS011;60641;53.556;9.914;2022-09-09T04:38:49;13.80;;;8.20;;
71606;SDS011;60641;53.556;9.914;2022-09-09T04:41:15;14.20;;;8.10;;
71606;SDS011;60641;53.556;9.914;2022-09-09T04:43:42;144.10;;;31.80;;
71606;SDS011;60641;53.556;9.914;2022-09-09T04:46:09;15.00;;;8.70;;
71606;SDS011;60641;53.556;9.914;2022-09-09T04:48:35;16.90;;;8.10;;
71606;SDS011;60641;53.556;9.914;2022-09-09T04:51:03;14.20;;;8.40;;
71606;SDS011;60641;53.556;9.914;2022-09-09T04:53:31;13.70;;;7.50;;
71606;SDS011;60641;53.556;9.914;2022-09-09T04:58:30;13.80;;;7.70;;
71606;SDS011;60641;53.556;9.914;2022-09-09T05:01:10;13.40;;;8.00;;
71606;SDS011;60641;53.556;9.914;2022-09-09T05:03:41;13.10;;;7.70;;
71606;SDS011;60641;53.556;9.914;2022-09-09T05:06:09;12.80;;;7.00;;
71606;SDS011;60641;53.556;9.914;2022-09-09T05:08:37;13.00;;;7.70;;
71606;SDS011;60641;53.556;9.914;2022-09-09T05:11:12;13.00;;;7.40;;
71606;SDS011;60641;53.556;9.914;2022-09-09T05:13:45;17.00;;;7.90;;
71606;SDS011;60641;53.556;9.914;2022-09-09T05:16:12;13.40;;;7.00;;
71606;SDS011;60641;53.556;9.914;2022-09-09T05:18:40;11.60;;;6.80;;
71606;SDS011;60641;53.556;9.914;2022-09-09T05:21:09;11.80;;;6.00;;
71606;SDS011;60641;53.556;9.914;2022-09-09T05:23:36;12.00;;;6.70;;
71606;SDS011;60641;53.556;9.914;2022-09-09T05:26:03;11.30;;;5.80;;
71606;SDS011;60641;53.556;9.914;2022-09-09T05:28:30;11.00;;;5.10;;
71606;SDS011;60641;53.556;9.914;2022-09-09T05:30:57;12.20;;;5.10;;
71606;SDS011;60641;53.556;9.914;2022-09-09T05:33:24;14.00;;;5.30;;
71606;SDS011;60641;53.556;9.914;2022-09-09T05:35:58;12.40;;;6.30;;
71606;SDS011;60641;53.556;9.914;2022-09-09T05:38:26;10.10;;;5.60;;
71606;SDS011;60641;53.556;9.914;2022-09-09T05:40:52;10.10;;;5.30;;
71606;SDS011;60641;53.556;9.914;2022-09-09T05:43:19;11.50;;;5.80;;
71606;SDS011;60641;53.556;9.914;2022-09-09T05:45:47;11.00;;;5.60;;
71606;SDS011;60641;53.556;9.914;2022-09-09T05:48:14;8.80;;;4.50;;
71606;SDS011;60641;53.556;9.914;2022-09-09T05:50:52;9.80;;;5.20;;
71606;SDS011;60641;53.556;9.914;2022-09-09T05:53:19;9.50;;;5.00;;
71606;SDS011;60641;53.556;9.914;2022-09-09T05:55:46;11.80;;;5.50;;
71606;SDS011;60641;53.556;9.914;2022-09-09T05:58:13;11.60;;;5.10;;
71606;SDS011;60641;53.556;9.914;2022-09-09T06:00:41;10.20;;;5.30;;
71606;SDS011;60641;53.556;9.914;2022-09-09T06:03:09;12.70;;;4.80;;
71606;SDS011;60641;53.556;9.914;2022-09-09T06:05:37;10.00;;;4.70;;
71606;SDS011;60641;53.556;9.914;2022-09-09T06:08:03;13.00;;;5.50;;
71606;SDS011;60641;53.556;9.914;2022-09-09T06:10:30;9.40;;;4.80;;
71606;SDS011;60641;53.556;9.914;2022-09-09T06:12:56;13.00;;;5.20;;
71606;SDS011;60641;53.556;9.914;2022-09-09T06:15:22;13.70;;;4.90;;
71606;SDS011;60641;53.556;9.914;2022-09-09T06:17:53;13.90;;;4.60;;
71606;SDS011;60641;53.556;9.914;2022-09-09T06:20:21;9.80;;;4.60;;
71606;SDS011;60641;53.556;9.914;2022-09-09T06:22:47;9.00;;;4.10;;
71606;SDS011;60641;53.556;9.914;2022-09-09T06:25:14;11.10;;;4.00;;
71606;SDS011;60641;53.556;9.914;2022-09-09T06:27:41;9.90;;;3.40;;
71606;SDS011;60641;53.556;9.914;2022-09-09T06:30:08;8.40;;;3.80;;
71606;SDS011;60641;53.556;9.914;2022-09-09T06:32:35;10.50;;;4.00;;
71606;SDS011;60641;53.556;9.914;2022-09-09T06:35:03;8.10;;;3.30;;
71606;SDS011;60641;53.556;9.914;2022-09-09T06:37:33;7.80;;;3.10;;
71606;SDS011;60641;53.556;9.914;2022-09-09T06:40:00;8.90;;;3.30;;
71606;SDS011;60641;53.556;9.914;2022-09-09T06:42:26;9.40;;;3.10;;
71606;SDS011;60641;53.556;9.914;2022-09-09T06:44:53;9.00;;;2.70;;
71606;SDS011;60641;53.556;9.914;2022-09-09T06:47:19;7.90;;;2.70;;
71606;SDS011;60641;53.556;9.914;2022-09-09T06:49:45;7.40;;;2.90;;
71606;SDS011;60641;53.556;9.914;2022-09-09T06:52:12;11.90;;;3.50;;
71606;SDS011;60641;53.556;9.914;2022-09-09T06:54:38;10.20;;;4.00;;
71606;SDS011;60641;53.556;9.914;2022-09-09T06:57:05;8.70;;;3.40;;
71606;SDS011;60641;53.556;9.914;2022-09-09T06:59:33;9.70;;;3.00;;
71606;SDS011;60641;53.556;9.914;2022-09-09T07:01:59;9.70;;;3.30;;
71606;SDS011;60641;53.556;9.914;2022-09-09T07:04:25;7.10;;;2.80;;
71606;SDS011;60641;53.556;9.914;2022-09-09T07:06:52;7.50;;;3.10;;
71606;SDS011;60641;53.556;9.914;2022-09-09T07:09:18;9.80;;;2.70;;
71606;SDS011;60641;53.556;9.914;2022-09-09T07:11:48;7.40;;;2.40;;
71606;SDS011;60641;53.556;9.914;2022-09-09T07:14:17;7.70;;;2.70;;
71606;SDS011;60641;53.556;9.914;2022-09-09T07:16:44;6.80;;;2.60;;
71606;SDS011;60641;53.556;9.914;2022-09-09T07:19:11;9.50;;;2.80;;
71606;SDS011;60641;53.556;9.914;2022-09-09T07:21:38;5.90;;;2.30;;
71606;SDS011;60641;53.556;9.914;2022-09-09T07:24:06;7.90;;;2.40;;
71606;SDS011;60641;53.556;9.914;2022-09-09T07:26:36;6.40;;;2.20;;
71606;SDS011;60641;53.556;9.914;2022-09-09T07:29:03;6.50;;;2.30;;
71606;SDS011;60641;53.556;9.914;2022-09-09T07:31:30;6.80;;;2.40;;
71606;SDS011;60641;53.556;9.914;2022-09-09T07:33:59;7.20;;;2.20;;
71606;SDS011;60641;53.556;9.914;2022-09-09T07:36:27;6.20;;;2.30;;
71606;SDS011;60641;53.556;9.914;2022-09-09T07:39:02;6.60;;;2.50;;
71606;SDS011;60641;53.556;9.914;2022-09-09T07:41:34;7.00;;;2.20;;
71606;SDS011;60641;53.556;9.914;2022-09-09T07:44:11;7.10;;;2.20;;
71606;SDS011;60641;53.556;9.914;2022-09-09T07:46:40;6.50;;;2.20;;
71606;SDS011;60641;53.556;9.914;2022-09-09T07:49:10;6.00;;;2.20;;
71606;SDS011;60641;53.556;9.914;2022-09-09T07:51:38;7.40;;;2.40;;
71606;SDS011;60641;53.556;9.914;2022-09-09T07:54:08;7.20;;;2.10;;
71606;SDS011;60641;53.556;9.914;2022-09-09T07:56:35;4.70;;;1.80;;
71606;SDS011;60641;53.556;9.914;2022-09-09T07:59:03;7.00;;;2.20;;
71606;SDS011;60641;53.556;9.914;2022-09-09T08:01:36;7.90;;;2.00;;
71606;SDS011;60641;53.556;9.914;2022-09-09T08:04:06;5.30;;;1.80;;
71606;SDS011;60641;53.556;9.914;2022-09-09T08:06:38;8.40;;;2.10;;
71606;SDS011;60641;53.556;9.914;2022-09-09T08:09:07;7.90;;;2.50;;
71606;SDS011;60641;53.556;9.914;2022-09-09T08:11:34;6.10;;;2.00;;
71606;SDS011;60641;53.556;9.914;2022-09-09T08:14:02;6.70;;;2.10;;
71606;SDS011;60641;53.556;9.914;2022-09-09T08:16:30;6.50;;;2.00;;
71606;SDS011;60641;53.556;9.914;2022-09-09T08:18:58;8.70;;;1.90;;
71606;SDS011;60641;53.556;9.914;2022-09-09T08:21:26;8.10;;;1.80;;
71606;SDS011;60641;53.556;9.914;2022-09-09T08:23:54;5.20;;;1.70;;
71606;SDS011;60641;53.556;9.914;2022-09-09T08:26:23;6.10;;;1.90;;
71606;SDS011;60641;53.556;9.914;2022-09-09T08:29:00;5.70;;;1.80;;
71606;SDS011;60641;53.556;9.914;2022-09-09T08:34:00;6.20;;;1.80;;
71606;SDS011;60641;53.556;9.914;2022-09-09T08:36:28;5.70;;;1.60;;
71606;SDS011;60641;53.556;9.914;2022-09-09T08:38:56;6.90;;;2.20;;
71606;SDS011;60641;53.556;9.914;2022-09-09T08:46:43;5.30;;;1.70;;
71606;SDS011;60641;53.556;9.914;2022-09-09T08:51:48;6.70;;;1.70;;
71606;SDS011;60641;53.556;9.914;2022-09-09T08:54:15;4.30;;;1.50;;
71606;SDS011;60641;53.556;9.914;2022-09-09T08:56:42;5.30;;;1.60;;
71606;SDS011;60641;53.556;9.914;2022-09-09T08:59:08;5.30;;;1.60;;
71606;SDS011;60641;53.556;9.914;2022-09-09T09:01:46;4.50;;;1.40;;
71606;SDS011;60641;53.556;9.914;2022-09-09T09:12:41;5.50;;;1.20;;
71606;SDS011;60641;53.556;9.914;2022-09-09T09:15:55;5.80;;;1.70;;
71606;SDS011;60641;53.556;9.914;2022-09-09T09:17:57;4.80;;;1.50;;
71606;SDS011;60641;53.556;9.914;2022-09-09T09:20:29;4.70;;;1.30;;
71606;SDS011;60641;53.556;9.914;2022-09-09T09:23:01;5.60;;;1.20;;
71606;SDS011;60641;53.556;9.914;2022-09-09T09:25:36;5.60;;;1.60;;
71606;SDS011;60641;53.556;9.914;2022-09-09T09:28:12;5.80;;;1.20;;
71606;SDS011;60641;53.556;9.914;2022-09-09T09:30:45;7.10;;;1.20;;
71606;SDS011;60641;53.556;9.914;2022-09-09T09:33:16;5.10;;;1.40;;
71606;SDS011;60641;53.556;9.914;2022-09-09T09:35:46;4.40;;;1.00;;
71606;SDS011;60641;53.556;9.914;2022-09-09T09:38:18;4.60;;;1.10;;
71606;SDS011;60641;53.556;9.914;2022-09-09T09:40:52;3.90;;;1.10;;
71606;SDS011;60641;53.556;9.914;2022-09-09T09:43:30;4.80;;;1.00;;
71606;SDS011;60641;53.556;9.914;2022-09-09T09:45:59;5.30;;;1.30;;
71606;SDS011;60641;53.556;9.914;2022-09-09T09:48:26;4.90;;;1.30;;
71606;SDS011;60641;53.556;9.914;2022-09-09T09:53:28;7.40;;;1.70;;
71606;SDS011;60641;53.556;9.914;2022-09-09T09:56:00;4.80;;;1.20;;
71606;SDS011;60641;53.556;9.914;2022-09-09T09:58:31;5.30;;;1.10;;
71606;SDS011;60641;53.556;9.914;2022-09-09T10:01:00;5.10;;;1.40;;
71606;SDS011;60641;53.556;9.914;2022-09-09T10:03:31;7.10;;;1.60;;
71606;SDS011;60641;53.556;9.914;2022-09-09T10:05:59;5.40;;;1.30;;
71606;SDS011;60641;53.556;9.914;2022-09-09T10:08:26;5.60;;;1.10;;
71606;SDS011;60641;53.556;9.914;2022-09-09T10:13:53;5.70;;;0.90;;
71606;SDS011;60641;53.556;9.914;2022-09-09T10:19:13;5.80;;;1.10;;
71606;SDS011;60641;53.556;9.914;2022-09-09T10:21:56;7.00;;;1.30;;
71606;SDS011;60641;53.556;9.914;2022-09-09T10:28:10;6.40;;;1.90;;
71606;SDS011;60641;53.556;9.914;2022-09-09T10:33:36;3.50;;;1.20;;
71606;SDS011;60641;53.556;9.914;2022-09-09T10:36:25;3.50;;;0.90;;
71606;SDS011;60641;53.556;9.914;2022-09-09T10:39:06;3.40;;;1.10;;
71606;SDS011;60641;53.556;9.914;2022-09-09T10:41:57;5.50;;;1.20;;
71606;SDS011;60641;53.556;9.914;2022-09-09T10:50:29;4.20;;;1.20;;
71606;SDS011;60641;53.556;9.914;2022-09-09T10:55:47;5.20;;;1.20;;
71606;SDS011;60641;53.556;9.914;2022-09-09T10:58:24;4.10;;;1.10;;
71606;SDS011;60641;53.556;9.914;2022-09-09T11:00:56;4.20;;;1.00;;
71606;SDS011;60641;53.556;9.914;2022-09-09T11:03:26;6.70;;;1.40;;
71606;SDS011;60641;53.556;9.914;2022-09-09T11:06:06;5.50;;;1.10;;
71606;SDS011;60641;53.556;9.914;2022-09-09T11:08:37;6.70;;;1.30;;
71606;SDS011;60641;53.556;9.914;2022-09-09T11:11:19;4.40;;;1.20;;
71606;SDS011;60641;53.556;9.914;2022-09-09T11:16:38;5.00;;;1.60;;
71606;SDS011;60641;53.556;9.914;2022-09-09T11:19:13;4.30;;;1.10;;
71606;SDS011;60641;53.556;9.914;2022-09-09T11:21:45;4.70;;;1.10;;
71606;SDS011;60641;53.556;9.914;2022-09-09T11:24:18;3.80;;;1.20;;
71606;SDS011;60641;53.556;9.914;2022-09-09T11:26:53;6.40;;;1.20;;
71606;SDS011;60641;53.556;9.914;2022-09-09T11:32:22;6.80;;;1.30;;
71606;SDS011;60641;53.556;9.914;2022-09-09T11:40:29;4.20;;;1.00;;
71606;SDS011;60641;53.556;9.914;2022-09-09T11:43:16;6.30;;;1.50;;
71606;SDS011;60641;53.556;9.914;2022-09-09T11:45:54;6.10;;;1.10;;
71606;SDS011;60641;53.556;9.914;2022-09-09T11:48:34;4.30;;;1.00;;
71606;SDS011;60641;53.556;9.914;2022-09-09T11:53:53;6.10;;;1.20;;
71606;SDS011;60641;53.556;9.914;2022-09-09T11:56:25;5.40;;;1.40;;
71606;SDS011;60641;53.556;9.914;2022-09-09T11:59:20;5.70;;;1.70;;
71606;SDS011;60641;53.556;9.914;2022-09-09T12:01:55;6.10;;;1.10;;
71606;SDS011;60641;53.556;9.914;2022-09-09T12:04:32;4.90;;;1.20;;
71606;SDS011;60641;53.556;9.914;2022-09-09T12:07:02;5.80;;;1.40;;
71606;SDS011;60641;53.556;9.914;2022-09-09T12:09:48;5.90;;;1.30;;
71606;SDS011;60641;53.556;9.914;2022-09-09T12:12:22;4.90;;;1.20;;
71606;SDS011;60641;53.556;9.914;2022-09-09T12:15:33;5.90;;;1.20;;
71606;SDS011;60641;53.556;9.914;2022-09-09T12:20:08;7.10;;;1.50;;
71606;SDS011;60641;53.556;9.914;2022-09-09T12:25:46;4.80;;;1.40;;
71606;SDS011;60641;53.556;9.914;2022-09-09T12:31:15;4.70;;;1.30;;
71606;SDS011;60641;53.556;9.914;2022-09-09T12:33:45;6.10;;;1.40;;
71606;SDS011;60641;53.556;9.914;2022-09-09T12:36:15;4.40;;;1.20;;
71606;SDS011;60641;53.556;9.914;2022-09-09T12:38:43;8.10;;;2.00;;
71606;SDS011;60641;53.556;9.914;2022-09-09T12:41:21;5.70;;;1.50;;
71606;SDS011;60641;53.556;9.914;2022-09-09T12:43:49;6.80;;;1.40;;
71606;SDS011;60641;53.556;9.914;2022-09-09T12:46:21;7.40;;;1.60;;
71606;SDS011;60641;53.556;9.914;2022-09-09T12:51:30;6.30;;;1.60;;
71606;SDS011;60641;53.556;9.914;2022-09-09T12:53:58;7.90;;;1.60;;
71606;SDS011;60641;53.556;9.914;2022-09-09T12:56:26;7.30;;;1.80;;
71606;SDS011;60641;53.556;9.914;2022-09-09T12:58:55;10.00;;;2.00;;
71606;SDS011;60641;53.556;9.914;2022-09-09T13:01:24;7.30;;;1.80;;
71606;SDS011;60641;53.556;9.914;2022-09-09T13:03:52;7.70;;;1.80;;
71606;SDS011;60641;53.556;9.914;2022-09-09T13:08:50;5.30;;;1.70;;
71606;SDS011;60641;53.556;9.914;2022-09-09T13:11:19;6.50;;;1.70;;
71606;SDS011;60641;53.556;9.914;2022-09-09T13:13:55;6.40;;;2.00;;
71606;SDS011;60641;53.556;9.914;2022-09-09T13:16:29;4.70;;;1.80;;
71606;SDS011;60641;53.556;9.914;2022-09-09T13:19:01;6.20;;;1.70;;
71606;SDS011;60641;53.556;9.914;2022-09-09T13:21:36;4.50;;;1.50;;
71606;SDS011;60641;53.556;9.914;2022-09-09T13:24:05;4.70;;;1.30;;
71606;SDS011;60641;53.556;9.914;2022-09-09T13:26:33;4.80;;;1.30;;
71606;SDS011;60641;53.556;9.914;2022-09-09T13:29:16;6.50;;;1.20;;
71606;SDS011;60641;53.556;9.914;2022-09-09T13:31:44;4.90;;;1.10;;
71606;SDS011;60641;53.556;9.914;2022-09-09T13:34:26;7.10;;;1.50;;
71606;SDS011;60641;53.556;9.914;2022-09-09T13:37:00;8.10;;;1.80;;
71606;SDS011;60641;53.556;9.914;2022-09-09T13:39:28;6.80;;;1.60;;
71606;SDS011;60641;53.556;9.914;2022-09-09T13:41:55;6.80;;;1.40;;
71606;SDS011;60641;53.556;9.914;2022-09-09T13:44:24;6.60;;;1.50;;
71606;SDS011;60641;53.556;9.914;2022-09-09T13:46:59;4.80;;;1.30;;
71606;SDS011;60641;53.556;9.914;2022-09-09T13:49:30;6.50;;;1.90;;
71606;SDS011;60641;53.556;9.914;2022-09-09T13:52:03;5.60;;;1.30;;
71606;SDS011;60641;53.556;9.914;2022-09-09T13:54:37;4.20;;;1.40;;
71606;SDS011;60641;53.556;9.914;2022-09-09T13:57:04;5.80;;;1.30;;
71606;SDS011;60641;53.556;9.914;2022-09-09T13:59:31;6.30;;;1.60;;
71606;SDS011;60641;53.556;9.914;2022-09-09T14:01:57;6.40;;;1.70;;
71606;SDS011;60641;53.556;9.914;2022-09-09T14:04:24;5.30;;;1.60;;
71606;SDS011;60641;53.556;9.914;2022-09-09T14:06:50;5.50;;;1.40;;
71606;SDS011;60641;53.556;9.914;2022-09-09T14:09:17;4.90;;;1.40;;
71606;SDS011;60641;53.556;9.914;2022-09-09T14:11:44;6.20;;;1.50;;
71606;SDS011;60641;53.556;9.914;2022-09-09T14:14:14;4.40;;;1.30;;
71606;SDS011;60641;53.556;9.914;2022-09-09T14:16:41;5.80;;;1.70;;
71606;SDS011;60641;53.556;9.914;2022-09-09T14:19:08;7.80;;;2.10;;
71606;SDS011;60641;53.556;9.914;2022-09-09T14:21:35;5.30;;;1.90;;
71606;SDS011;60641;53.556;9.914;2022-09-09T14:24:01;6.10;;;1.80;;
71606;SDS011;60641;53.556;9.914;2022-09-09T14:26:28;7.70;;;2.00;;
71606;SDS011;60641;53.556;9.914;2022-09-09T14:28:55;5.70;;;1.90;;
71606;SDS011;60641;53.556;9.914;2022-09-09T14:31:23;8.50;;;2.30;;
71606;SDS011;60641;53.556;9.914;2022-09-09T14:33:49;8.50;;;1.60;;
71606;SDS011;60641;53.556;9.914;2022-09-09T14:36:17;6.70;;;1.70;;
71606;SDS011;60641;53.556;9.914;2022-09-09T14:38:43;4.80;;;1.50;;
71606;SDS011;60641;53.556;9.914;2022-09-09T14:41:13;6.80;;;1.50;;
71606;SDS011;60641;53.556;9.914;2022-09-09T14:43:43;4.40;;;1.50;;
71606;SDS011;60641;53.556;9.914;2022-09-09T14:46:19;6.50;;;1.70;;
71606;SDS011;60641;53.556;9.914;2022-09-09T14:48:46;8.60;;;2.30;;
71606;SDS011;60641;53.556;9.914;2022-09-09T14:51:16;6.60;;;1.60;;
71606;SDS011;60641;53.556;9.914;2022-09-09T14:53:50;6.10;;;1.40;;
71606;SDS011;60641;53.556;9.914;2022-09-09T14:56:22;5.60;;;1.50;;
71606;SDS011;60641;53.556;9.914;2022-09-09T14:58:50;8.00;;;1.50;;
71606;SDS011;60641;53.556;9.914;2022-09-09T15:01:18;8.40;;;1.80;;
71606;SDS011;60641;53.556;9.914;2022-09-09T15:03:49;5.80;;;1.80;;
71606;SDS011;60641;53.556;9.914;2022-09-09T15:06:17;6.30;;;1.40;;
71606;SDS011;60641;53.556;9.914;2022-09-09T15:08:44;5.10;;;1.60;;
71606;SDS011;60641;53.556;9.914;2022-09-09T15:11:12;6.50;;;1.40;;
71606;SDS011;60641;53.556;9.914;2022-09-09T15:13:40;7.40;;;1.60;;
71606;SDS011;60641;53.556;9.914;2022-09-09T15:16:08;6.10;;;2.40;;
71606;SDS011;60641;53.556;9.914;2022-09-09T15:18:36;6.50;;;1.80;;
71606;SDS011;60641;53.556;9.914;2022-09-09T15:21:09;6.30;;;2.10;;
71606;SDS011;60641;53.556;9.914;2022-09-09T15:23:40;5.90;;;1.80;;
71606;SDS011;60641;53.556;9.914;2022-09-09T15:26:07;6.60;;;2.00;;
71606;SDS011;60641;53.556;9.914;2022-09-09T15:28:34;5.50;;;1.70;;
71606;SDS011;60641;53.556;9.914;2022-09-09T15:31:08;3.70;;;1.30;;
71606;SDS011;60641;53.556;9.914;2022-09-09T15:33:40;6.90;;;1.70;;
71606;SDS011;60641;53.556;9.914;2022-09-09T15:36:20;3.90;;;1.20;;
71606;SDS011;60641;53.556;9.914;2022-09-09T15:38:48;5.10;;;1.20;;
71606;SDS011;60641;53.556;9.914;2022-09-09T15:41:15;5.10;;;1.50;;
71606;SDS011;60641;53.556;9.914;2022-09-09T15:43:46;4.10;;;1.50;;
71606;SDS011;60641;53.556;9.914;2022-09-09T15:48:44;4.00;;;1.30;;
71606;SDS011;60641;53.556;9.914;2022-09-09T15:51:10;4.60;;;1.30;;
71606;SDS011;60641;53.556;9.914;2022-09-09T15:53:37;4.30;;;1.20;;
71606;SDS011;60641;53.556;9.914;2022-09-09T15:56:05;5.50;;;1.20;;
71606;SDS011;60641;53.556;9.914;2022-09-09T15:58:32;4.90;;;1.50;;
71606;SDS011;60641;53.556;9.914;2022-09-09T16:01:06;4.50;;;1.30;;
71606;SDS011;60641;53.556;9.914;2022-09-09T16:03:38;6.20;;;1.60;;
71606;SDS011;60641;53.556;9.914;2022-09-09T16:06:07;4.20;;;1.30;;
71606;SDS011;60641;53.556;9.914;2022-09-09T16:08:35;3.70;;;1.10;;
71606;SDS011;60641;53.556;9.914;2022-09-09T16:11:04;3.50;;;1.10;;
71606;SDS011;60641;53.556;9.914;2022-09-09T16:13:35;3.40;;;0.90;;
71606;SDS011;60641;53.556;9.914;2022-09-09T16:16:03;4.00;;;1.00;;
71606;SDS011;60641;53.556;9.914;2022-09-09T16:18:36;3.20;;;1.10;;
71606;SDS011;60641;53.556;9.914;2022-09-09T16:21:07;3.20;;;0.80;;
71606;SDS011;60641;53.556;9.914;2022-09-09T16:23:34;3.50;;;1.10;;
71606;SDS011;60641;53.556;9.914;2022-09-09T16:26:01;4.10;;;1.10;;
71606;SDS011;60641;53.556;9.914;2022-09-09T16:28:34;3.00;;;1.00;;
71606;SDS011;60641;53.556;9.914;2022-09-09T16:31:06;3.30;;;0.90;;
71606;SDS011;60641;53.556;9.914;2022-09-09T16:33:46;3.50;;;1.20;;
71606;SDS011;60641;53.556;9.914;2022-09-09T16:36:15;5.00;;;1.40;;
71606;SDS011;60641;53.556;9.914;2022-09-09T16:38:43;4.80;;;1.50;;
71606;SDS011;60641;53.556;9.914;2022-09-09T16:41:12;6.50;;;2.40;;
71606;SDS011;60641;53.556;9.914;2022-09-09T16:43:40;5.20;;;1.80;;
71606;SDS011;60641;53.556;9.914;2022-09-09T16:46:14;6.00;;;2.20;;
71606;SDS011;60641;53.556;9.914;2022-09-09T16:48:47;5.80;;;1.30;;
71606;SDS011;60641;53.556;9.914;2022-09-09T16:51:15;4.10;;;1.20;;
71606;SDS011;60641;53.556;9.914;2022-09-09T16:53:43;4.50;;;1.30;;
71606;SDS011;60641;53.556;9.914;2022-09-09T16:56:15;4.80;;;1.40;;
71606;SDS011;60641;53.556;9.914;2022-09-09T16:58:43;5.90;;;1.10;;
71606;SDS011;60641;53.556;9.914;2022-09-09T17:01:10;6.90;;;1.30;;
71606;SDS011;60641;53.556;9.914;2022-09-09T17:03:40;3.50;;;1.20;;